sensor_id;sensor_type;location;lat;lon;timestamp;temperature;humidity
52415;DHT22;38340;52.964;6.086;2022-07-17T00:01:05;10.10;99.90
52415;DHT22;38340;52.964;6.086;2022-07-17T00:03:31;10.10;99.90
52415;DHT22;38340;52.964;6.086;2022-07-17T00:05:57;10.10;99.90
52415;DHT22;38340;52.964;6.086;2022-07-17T00:08:22;10.00;99.90
52415;DHT22;38340;52.964;6.086;2022-07-17T00:10:48;10.00;99.90
52415;DHT22;38340;52.964;6.086;2022-07-17T00:13:14;10.00;99.90
52415;DHT22;38340;52.964;6.086;2022-07-17T00:15:40;10.00;99.90
52415;DHT22;38340;52.964;6.086;2022-07-17T00:18:06;10.00;99.90
52415;DHT22;38340;52.964;6.086;2022-07-17T00:20:35;10.00;99.90
52415;DHT22;38340;52.964;6.086;2022-07-17T00:23:01;10.00;99.90
52415;DHT22;38340;52.964;6.086;2022-07-17T00:25:27;9.90;99.90
52415;DHT22;38340;52.964;6.086;2022-07-17T00:27:53;9.90;99.90
52415;DHT22;38340;52.964;6.086;2022-07-17T00:30:19;10.00;99.90
52415;DHT22;38340;52.964;6.086;2022-07-17T00:32:45;10.00;99.90
52415;DHT22;38340;52.964;6.086;2022-07-17T00:35:11;9.90;99.90
52415;DHT22;38340;52.964;6.086;2022-07-17T00:37:45;9.80;99.90
52415;DHT22;38340;52.964;6.086;2022-07-17T00:40:14;9.80;99.90
52415;DHT22;38340;52.964;6.086;2022-07-17T00:42:41;9.80;99.90
52415;DHT22;38340;52.964;6.086;2022-07-17T00:45:08;9.70;99.90
52415;DHT22;38340;52.964;6.086;2022-07-17T00:47:50;9.70;99.90
52415;DHT22;38340;52.964;6.086;2022-07-17T00:50:16;9.70;99.90
52415;DHT22;38340;52.964;6.086;2022-07-17T00:52:42;9.60;99.90
52415;DHT22;38340;52.964;6.086;2022-07-17T00:55:08;9.60;99.90
52415;DHT22;38340;52.964;6.086;2022-07-17T00:57:36;9.50;99.90
52415;DHT22;38340;52.964;6.086;2022-07-17T01:00:05;9.50;99.90
52415;DHT22;38340;52.964;6.086;2022-07-17T01:02:35;9.40;99.90
52415;DHT22;38340;52.964;6.086;2022-07-17T01:05:01;9.40;99.90
52415;DHT22;38340;52.964;6.086;2022-07-17T01:07:27;9.40;99.90
52415;DHT22;38340;52.964;6.086;2022-07-17T01:09:52;9.30;99.90
52415;DHT22;38340;52.964;6.086;2022-07-17T01:12:18;9.30;99.90
52415;DHT22;38340;52.964;6.086;2022-07-17T01:14:45;9.30;99.90
52415;DHT22;38340;52.964;6.086;2022-07-17T01:17:11;9.20;99.90
52415;DHT22;38340;52.964;6.086;2022-07-17T01:19:37;9.30;99.90
52415;DHT22;38340;52.964;6.086;2022-07-17T01:22:03;9.30;99.90
52415;DHT22;38340;52.964;6.086;2022-07-17T01:24:28;9.30;99.90
52415;DHT22;38340;52.964;6.086;2022-07-17T01:26:54;9.40;99.90
52415;DHT22;38340;52.964;6.086;2022-07-17T01:29:20;9.40;99.90
52415;DHT22;38340;52.964;6.086;2022-07-17T01:31:46;9.30;99.90
52415;DHT22;38340;52.964;6.086;2022-07-17T01:34:12;9.30;99.90
52415;DHT22;38340;52.964;6.086;2022-07-17T01:36:38;9.20;99.90
52415;DHT22;38340;52.964;6.086;2022-07-17T01:39:04;9.20;99.90
52415;DHT22;38340;52.964;6.086;2022-07-17T01:41:30;9.20;99.90
52415;DHT22;38340;52.964;6.086;2022-07-17T01:43:56;9.20;99.90
52415;DHT22;38340;52.964;6.086;2022-07-17T01:46:22;9.20;99.90
52415;DHT22;38340;52.964;6.086;2022-07-17T01:48:47;9.20;99.90
52415;DHT22;38340;52.964;6.086;2022-07-17T01:51:13;9.20;99.90
52415;DHT22;38340;52.964;6.086;2022-07-17T01:53:39;9.10;99.90
52415;DHT22;38340;52.964;6.086;2022-07-17T01:56:05;9.10;99.90
52415;DHT22;38340;52.964;6.086;2022-07-17T01:58:30;9.10;99.90
52415;DHT22;38340;52.964;6.086;2022-07-17T02:00:56;9.10;99.90
52415;DHT22;38340;52.964;6.086;2022-07-17T02:03:22;9.00;99.90
52415;DHT22;38340;52.964;6.086;2022-07-17T02:05:48;9.00;99.90
52415;DHT22;38340;52.964;6.086;2022-07-17T02:08:13;9.00;99.90
52415;DHT22;38340;52.964;6.086;2022-07-17T02:10:39;9.00;99.90
52415;DHT22;38340;52.964;6.086;2022-07-17T02:13:05;9.00;99.90
52415;DHT22;38340;52.964;6.086;2022-07-17T02:15:30;9.00;99.90
52415;DHT22;38340;52.964;6.086;2022-07-17T02:17:56;8.90;99.90
52415;DHT22;38340;52.964;6.086;2022-07-17T02:20:22;9.00;99.90
52415;DHT22;38340;52.964;6.086;2022-07-17T02:22:48;8.90;99.90
52415;DHT22;38340;52.964;6.086;2022-07-17T02:25:14;8.90;99.90
52415;DHT22;38340;52.964;6.086;2022-07-17T02:27:40;9.00;99.90
52415;DHT22;38340;52.964;6.086;2022-07-17T02:30:09;8.90;99.90
52415;DHT22;38340;52.964;6.086;2022-07-17T02:32:36;9.00;99.90
52415;DHT22;38340;52.964;6.086;2022-07-17T02:35:02;9.00;99.90
52415;DHT22;38340;52.964;6.086;2022-07-17T02:37:28;9.00;99.90
52415;DHT22;38340;52.964;6.086;2022-07-17T02:39:54;9.00;99.90
52415;DHT22;38340;52.964;6.086;2022-07-17T02:42:24;9.00;99.90
52415;DHT22;38340;52.964;6.086;2022-07-17T02:44:51;9.00;99.90
52415;DHT22;38340;52.964;6.086;2022-07-17T02:47:39;9.10;99.90
52415;DHT22;38340;52.964;6.086;2022-07-17T02:50:06;9.10;99.90
52415;DHT22;38340;52.964;6.086;2022-07-17T02:52:33;9.20;99.90
52415;DHT22;38340;52.964;6.086;2022-07-17T02:54:58;9.20;99.90
52415;DHT22;38340;52.964;6.086;2022-07-17T02:57:24;9.20;99.90
52415;DHT22;38340;52.964;6.086;2022-07-17T02:59:50;9.00;99.90
52415;DHT22;38340;52.964;6.086;2022-07-17T03:02:15;8.90;99.90
52415;DHT22;38340;52.964;6.086;2022-07-17T03:04:41;8.80;99.90
52415;DHT22;38340;52.964;6.086;2022-07-17T03:07:07;8.70;99.90
52415;DHT22;38340;52.964;6.086;2022-07-17T03:09:32;8.60;99.90
52415;DHT22;38340;52.964;6.086;2022-07-17T03:11:58;8.60;99.90
52415;DHT22;38340;52.964;6.086;2022-07-17T03:14:24;8.60;99.90
52415;DHT22;38340;52.964;6.086;2022-07-17T03:16:50;8.60;99.90
52415;DHT22;38340;52.964;6.086;2022-07-17T03:19:16;8.50;99.90
52415;DHT22;38340;52.964;6.086;2022-07-17T03:21:41;8.50;99.90
52415;DHT22;38340;52.964;6.086;2022-07-17T03:24:07;8.50;99.90
52415;DHT22;38340;52.964;6.086;2022-07-17T03:26:33;8.50;99.90
52415;DHT22;38340;52.964;6.086;2022-07-17T03:28:58;8.60;99.90
52415;DHT22;38340;52.964;6.086;2022-07-17T03:31:24;8.60;99.90
52415;DHT22;38340;52.964;6.086;2022-07-17T03:33:50;8.60;99.90
52415;DHT22;38340;52.964;6.086;2022-07-17T03:36:15;8.70;99.90
52415;DHT22;38340;52.964;6.086;2022-07-17T03:38:41;8.70;99.90
52415;DHT22;38340;52.964;6.086;2022-07-17T03:41:07;8.70;99.90
52415;DHT22;38340;52.964;6.086;2022-07-17T03:43:32;8.80;99.90
52415;DHT22;38340;52.964;6.086;2022-07-17T03:45:58;8.80;99.90
52415;DHT22;38340;52.964;6.086;2022-07-17T03:48:24;9.00;99.90
52415;DHT22;38340;52.964;6.086;2022-07-17T03:50:49;9.10;99.90
52415;DHT22;38340;52.964;6.086;2022-07-17T03:53:15;9.20;99.90
52415;DHT22;38340;52.964;6.086;2022-07-17T03:55:40;9.30;99.90
52415;DHT22;38340;52.964;6.086;2022-07-17T03:58:06;9.40;99.90
52415;DHT22;38340;52.964;6.086;2022-07-17T04:00:32;9.40;99.90
52415;DHT22;38340;52.964;6.086;2022-07-17T04:02:57;9.50;99.90
52415;DHT22;38340;52.964;6.086;2022-07-17T04:05:23;9.50;99.90
52415;DHT22;38340;52.964;6.086;2022-07-17T04:07:49;9.40;99.90
52415;DHT22;38340;52.964;6.086;2022-07-17T04:10:14;9.50;99.90
52415;DHT22;38340;52.964;6.086;2022-07-17T04:12:41;9.60;99.90
52415;DHT22;38340;52.964;6.086;2022-07-17T04:15:08;9.70;99.90
52415;DHT22;38340;52.964;6.086;2022-07-17T04:17:34;9.80;99.90
52415;DHT22;38340;52.964;6.086;2022-07-17T04:20:00;9.80;99.90
52415;DHT22;38340;52.964;6.086;2022-07-17T04:22:26;9.90;99.90
52415;DHT22;38340;52.964;6.086;2022-07-17T04:24:52;10.00;99.90
52415;DHT22;38340;52.964;6.086;2022-07-17T04:27:18;10.00;99.90
52415;DHT22;38340;52.964;6.086;2022-07-17T04:29:44;10.10;99.90
52415;DHT22;38340;52.964;6.086;2022-07-17T04:32:10;10.20;99.90
52415;DHT22;38340;52.964;6.086;2022-07-17T04:34:36;10.30;99.90
52415;DHT22;38340;52.964;6.086;2022-07-17T04:37:03;10.40;99.90
52415;DHT22;38340;52.964;6.086;2022-07-17T04:39:29;10.60;99.90
52415;DHT22;38340;52.964;6.086;2022-07-17T04:41:55;10.70;99.90
52415;DHT22;38340;52.964;6.086;2022-07-17T04:44:21;10.80;99.90
52415;DHT22;38340;52.964;6.086;2022-07-17T04:46:47;10.80;99.90
52415;DHT22;38340;52.964;6.086;2022-07-17T04:49:13;10.90;99.90
52415;DHT22;38340;52.964;6.086;2022-07-17T04:51:39;10.90;99.90
52415;DHT22;38340;52.964;6.086;2022-07-17T04:54:04;11.00;99.90
52415;DHT22;38340;52.964;6.086;2022-07-17T04:56:30;11.10;99.90
52415;DHT22;38340;52.964;6.086;2022-07-17T04:58:56;11.10;99.90
52415;DHT22;38340;52.964;6.086;2022-07-17T05:01:22;11.10;99.90
52415;DHT22;38340;52.964;6.086;2022-07-17T05:03:47;11.10;99.90
52415;DHT22;38340;52.964;6.086;2022-07-17T05:06:13;11.20;99.90
52415;DHT22;38340;52.964;6.086;2022-07-17T05:08:39;11.30;99.90
52415;DHT22;38340;52.964;6.086;2022-07-17T05:11:05;11.40;99.90
52415;DHT22;38340;52.964;6.086;2022-07-17T05:13:30;11.50;99.90
52415;DHT22;38340;52.964;6.086;2022-07-17T05:15:56;11.60;99.90
52415;DHT22;38340;52.964;6.086;2022-07-17T05:18:22;11.60;99.90
52415;DHT22;38340;52.964;6.086;2022-07-17T05:20:47;11.70;99.90
52415;DHT22;38340;52.964;6.086;2022-07-17T05:23:13;11.80;99.90
52415;DHT22;38340;52.964;6.086;2022-07-17T05:25:39;11.80;99.90
52415;DHT22;38340;52.964;6.086;2022-07-17T05:28:04;11.80;99.90
52415;DHT22;38340;52.964;6.086;2022-07-17T05:30:30;11.90;99.90
52415;DHT22;38340;52.964;6.086;2022-07-17T05:32:56;11.90;99.90
52415;DHT22;38340;52.964;6.086;2022-07-17T05:35:21;12.00;99.90
52415;DHT22;38340;52.964;6.086;2022-07-17T05:37:47;12.00;99.90
52415;DHT22;38340;52.964;6.086;2022-07-17T05:40:13;12.10;99.90
52415;DHT22;38340;52.964;6.086;2022-07-17T05:42:39;12.20;99.90
52415;DHT22;38340;52.964;6.086;2022-07-17T05:45:05;12.30;99.90
52415;DHT22;38340;52.964;6.086;2022-07-17T05:47:30;12.40;99.90
52415;DHT22;38340;52.964;6.086;2022-07-17T05:49:56;12.50;99.90
52415;DHT22;38340;52.964;6.086;2022-07-17T05:52:22;12.70;99.90
52415;DHT22;38340;52.964;6.086;2022-07-17T05:54:48;12.90;99.90
52415;DHT22;38340;52.964;6.086;2022-07-17T05:57:13;13.20;99.90
52415;DHT22;38340;52.964;6.086;2022-07-17T05:59:39;13.70;99.90
52415;DHT22;38340;52.964;6.086;2022-07-17T06:02:05;14.30;99.90
52415;DHT22;38340;52.964;6.086;2022-07-17T06:04:31;14.70;99.90
52415;DHT22;38340;52.964;6.086;2022-07-17T06:06:56;15.00;99.90
52415;DHT22;38340;52.964;6.086;2022-07-17T06:09:22;15.20;99.90
52415;DHT22;38340;52.964;6.086;2022-07-17T06:11:48;15.30;99.90
52415;DHT22;38340;52.964;6.086;2022-07-17T06:14:14;15.50;99.90
52415;DHT22;38340;52.964;6.086;2022-07-17T06:16:39;15.40;99.90
52415;DHT22;38340;52.964;6.086;2022-07-17T06:19:05;15.50;99.90
52415;DHT22;38340;52.964;6.086;2022-07-17T06:21:31;15.60;99.90
52415;DHT22;38340;52.964;6.086;2022-07-17T06:23:57;15.50;99.90
52415;DHT22;38340;52.964;6.086;2022-07-17T06:26:22;15.50;99.90
52415;DHT22;38340;52.964;6.086;2022-07-17T06:28:48;15.50;99.90
52415;DHT22;38340;52.964;6.086;2022-07-17T06:31:14;15.50;99.90
52415;DHT22;38340;52.964;6.086;2022-07-17T06:33:40;15.70;99.90
52415;DHT22;38340;52.964;6.086;2022-07-17T06:36:05;15.90;99.90
52415;DHT22;38340;52.964;6.086;2022-07-17T06:38:32;16.10;99.90
52415;DHT22;38340;52.964;6.086;2022-07-17T06:40:59;16.40;99.90
52415;DHT22;38340;52.964;6.086;2022-07-17T06:43:25;16.60;99.90
52415;DHT22;38340;52.964;6.086;2022-07-17T06:45:50;16.90;99.90
52415;DHT22;38340;52.964;6.086;2022-07-17T06:48:20;17.10;99.90
52415;DHT22;38340;52.964;6.086;2022-07-17T06:50:45;17.10;99.90
52415;DHT22;38340;52.964;6.086;2022-07-17T06:53:12;17.20;99.90
52415;DHT22;38340;52.964;6.086;2022-07-17T06:55:37;17.30;99.90
52415;DHT22;38340;52.964;6.086;2022-07-17T06:58:03;17.50;99.90
52415;DHT22;38340;52.964;6.086;2022-07-17T07:00:29;17.60;99.90
52415;DHT22;38340;52.964;6.086;2022-07-17T07:02:54;17.80;99.90
52415;DHT22;38340;52.964;6.086;2022-07-17T07:05:20;18.20;99.90
52415;DHT22;38340;52.964;6.086;2022-07-17T07:07:46;18.40;99.90
52415;DHT22;38340;52.964;6.086;2022-07-17T07:10:12;18.40;99.90
52415;DHT22;38340;52.964;6.086;2022-07-17T07:12:37;18.10;99.90
52415;DHT22;38340;52.964;6.086;2022-07-17T07:15:03;18.10;99.90
52415;DHT22;38340;52.964;6.086;2022-07-17T07:17:30;18.00;99.90
52415;DHT22;38340;52.964;6.086;2022-07-17T07:19:58;17.80;99.90
52415;DHT22;38340;52.964;6.086;2022-07-17T07:22:24;17.80;99.90
52415;DHT22;38340;52.964;6.086;2022-07-17T07:24:49;17.70;99.90
52415;DHT22;38340;52.964;6.086;2022-07-17T07:27:15;17.80;99.90
52415;DHT22;38340;52.964;6.086;2022-07-17T07:29:41;17.80;99.90
52415;DHT22;38340;52.964;6.086;2022-07-17T07:32:06;17.90;99.90
52415;DHT22;38340;52.964;6.086;2022-07-17T07:34:32;18.00;99.90
52415;DHT22;38340;52.964;6.086;2022-07-17T07:36:58;18.00;99.90
52415;DHT22;38340;52.964;6.086;2022-07-17T07:39:23;18.10;99.90
52415;DHT22;38340;52.964;6.086;2022-07-17T07:41:49;18.10;99.90
52415;DHT22;38340;52.964;6.086;2022-07-17T07:44:15;18.10;99.90
52415;DHT22;38340;52.964;6.086;2022-07-17T07:46:41;18.30;99.90
52415;DHT22;38340;52.964;6.086;2022-07-17T07:49:06;18.40;99.90
52415;DHT22;38340;52.964;6.086;2022-07-17T07:51:32;18.20;99.90
52415;DHT22;38340;52.964;6.086;2022-07-17T07:53:58;18.10;99.90
52415;DHT22;38340;52.964;6.086;2022-07-17T07:56:23;18.30;99.90
52415;DHT22;38340;52.964;6.086;2022-07-17T07:58:49;18.50;99.90
52415;DHT22;38340;52.964;6.086;2022-07-17T08:01:15;18.70;99.90
52415;DHT22;38340;52.964;6.086;2022-07-17T08:03:40;18.80;99.90
52415;DHT22;38340;52.964;6.086;2022-07-17T08:06:06;18.90;99.90
52415;DHT22;38340;52.964;6.086;2022-07-17T08:08:32;19.10;99.90
52415;DHT22;38340;52.964;6.086;2022-07-17T08:10:57;18.90;99.90
52415;DHT22;38340;52.964;6.086;2022-07-17T08:13:23;18.90;99.90
52415;DHT22;38340;52.964;6.086;2022-07-17T08:15:49;18.90;99.90
52415;DHT22;38340;52.964;6.086;2022-07-17T08:18:14;18.90;99.90
52415;DHT22;38340;52.964;6.086;2022-07-17T08:20:40;19.20;99.90
52415;DHT22;38340;52.964;6.086;2022-07-17T08:23:06;19.40;99.90
52415;DHT22;38340;52.964;6.086;2022-07-17T08:25:32;19.70;99.90
52415;DHT22;38340;52.964;6.086;2022-07-17T08:27:58;19.70;99.90
52415;DHT22;38340;52.964;6.086;2022-07-17T08:30:24;19.80;99.90
52415;DHT22;38340;52.964;6.086;2022-07-17T08:32:49;19.70;99.90
52415;DHT22;38340;52.964;6.086;2022-07-17T08:35:15;19.80;99.90
52415;DHT22;38340;52.964;6.086;2022-07-17T08:37:49;19.90;99.90
52415;DHT22;38340;52.964;6.086;2022-07-17T08:40:17;19.80;99.90
52415;DHT22;38340;52.964;6.086;2022-07-17T08:42:43;19.90;99.90
52415;DHT22;38340;52.964;6.086;2022-07-17T08:45:10;20.00;99.90
52415;DHT22;38340;52.964;6.086;2022-07-17T08:47:37;20.20;99.90
52415;DHT22;38340;52.964;6.086;2022-07-17T08:50:03;20.20;99.90
52415;DHT22;38340;52.964;6.086;2022-07-17T08:52:29;20.20;99.90
52415;DHT22;38340;52.964;6.086;2022-07-17T08:54:55;20.20;99.90
52415;DHT22;38340;52.964;6.086;2022-07-17T08:57:22;20.20;99.90
52415;DHT22;38340;52.964;6.086;2022-07-17T08:59:48;20.10;99.90
52415;DHT22;38340;52.964;6.086;2022-07-17T09:02:13;19.90;99.90
52415;DHT22;38340;52.964;6.086;2022-07-17T09:04:40;20.00;99.90
52415;DHT22;38340;52.964;6.086;2022-07-17T09:07:05;20.00;99.90
52415;DHT22;38340;52.964;6.086;2022-07-17T09:09:32;20.10;99.90
52415;DHT22;38340;52.964;6.086;2022-07-17T09:12:00;20.30;99.90
52415;DHT22;38340;52.964;6.086;2022-07-17T09:14:37;20.40;99.90
52415;DHT22;38340;52.964;6.086;2022-07-17T09:17:05;20.50;99.90
52415;DHT22;38340;52.964;6.086;2022-07-17T09:19:37;20.80;99.90
52415;DHT22;38340;52.964;6.086;2022-07-17T09:22:24;21.10;99.90
52415;DHT22;38340;52.964;6.086;2022-07-17T09:24:54;21.40;99.90
52415;DHT22;38340;52.964;6.086;2022-07-17T09:32:30;21.30;99.90
52415;DHT22;38340;52.964;6.086;2022-07-17T09:34:57;21.50;99.90
52415;DHT22;38340;52.964;6.086;2022-07-17T09:37:25;21.40;99.90
52415;DHT22;38340;52.964;6.086;2022-07-17T09:39:51;21.30;99.90
52415;DHT22;38340;52.964;6.086;2022-07-17T09:45:10;21.40;99.90
52415;DHT22;38340;52.964;6.086;2022-07-17T09:47:38;21.50;99.90
52415;DHT22;38340;52.964;6.086;2022-07-17T09:50:06;21.50;99.90
52415;DHT22;38340;52.964;6.086;2022-07-17T09:52:34;21.40;99.90
52415;DHT22;38340;52.964;6.086;2022-07-17T09:55:02;21.20;99.90
52415;DHT22;38340;52.964;6.086;2022-07-17T09:57:30;21.40;99.90
52415;DHT22;38340;52.964;6.086;2022-07-17T10:00:05;21.50;99.90
52415;DHT22;38340;52.964;6.086;2022-07-17T10:02:33;21.20;99.90
52415;DHT22;38340;52.964;6.086;2022-07-17T10:04:59;21.40;99.90
52415;DHT22;38340;52.964;6.086;2022-07-17T10:07:25;21.30;99.90
52415;DHT22;38340;52.964;6.086;2022-07-17T10:09:51;21.40;99.90
52415;DHT22;38340;52.964;6.086;2022-07-17T10:12:18;21.60;99.90
52415;DHT22;38340;52.964;6.086;2022-07-17T10:14:47;21.60;99.90
52415;DHT22;38340;52.964;6.086;2022-07-17T10:17:14;21.80;99.90
52415;DHT22;38340;52.964;6.086;2022-07-17T10:19:47;22.20;99.90
52415;DHT22;38340;52.964;6.086;2022-07-17T10:22:13;22.60;99.90
52415;DHT22;38340;52.964;6.086;2022-07-17T10:24:53;22.80;99.90
52415;DHT22;38340;52.964;6.086;2022-07-17T10:29:46;23.20;99.90
52415;DHT22;38340;52.964;6.086;2022-07-17T10:32:17;23.40;99.90
52415;DHT22;38340;52.964;6.086;2022-07-17T10:34:46;23.40;99.90
52415;DHT22;38340;52.964;6.086;2022-07-17T10:37:23;23.60;99.90
52415;DHT22;38340;52.964;6.086;2022-07-17T10:42:59;23.70;99.90
52415;DHT22;38340;52.964;6.086;2022-07-17T10:45:32;23.80;99.90
52415;DHT22;38340;52.964;6.086;2022-07-17T10:48:10;23.90;99.90
52415;DHT22;38340;52.964;6.086;2022-07-17T10:50:42;23.90;99.90
52415;DHT22;38340;52.964;6.086;2022-07-17T10:55:44;23.40;99.90
52415;DHT22;38340;52.964;6.086;2022-07-17T10:58:28;23.40;99.90
52415;DHT22;38340;52.964;6.086;2022-07-17T11:01:14;23.40;99.90
52415;DHT22;38340;52.964;6.086;2022-07-17T11:06:20;23.70;99.90
52415;DHT22;38340;52.964;6.086;2022-07-17T11:11:45;24.00;99.90
52415;DHT22;38340;52.964;6.086;2022-07-17T11:14:14;24.00;99.90
52415;DHT22;38340;52.964;6.086;2022-07-17T11:16:54;24.00;99.90
52415;DHT22;38340;52.964;6.086;2022-07-17T11:19:28;24.00;99.90
52415;DHT22;38340;52.964;6.086;2022-07-17T11:21:57;23.90;99.90
52415;DHT22;38340;52.964;6.086;2022-07-17T11:24:23;23.80;99.90
52415;DHT22;38340;52.964;6.086;2022-07-17T11:26:52;23.90;99.90
52415;DHT22;38340;52.964;6.086;2022-07-17T11:29:18;23.90;99.90
52415;DHT22;38340;52.964;6.086;2022-07-17T11:31:44;23.80;99.90
52415;DHT22;38340;52.964;6.086;2022-07-17T11:34:11;23.90;99.90
52415;DHT22;38340;52.964;6.086;2022-07-17T11:36:43;23.80;99.90
52415;DHT22;38340;52.964;6.086;2022-07-17T11:39:14;23.60;99.90
52415;DHT22;38340;52.964;6.086;2022-07-17T11:41:42;23.70;99.90
52415;DHT22;38340;52.964;6.086;2022-07-17T11:44:10;23.70;99.90
52415;DHT22;38340;52.964;6.086;2022-07-17T11:46:37;23.80;99.90
52415;DHT22;38340;52.964;6.086;2022-07-17T11:49:04;23.80;99.90
52415;DHT22;38340;52.964;6.086;2022-07-17T11:51:39;23.80;99.90
52415;DHT22;38340;52.964;6.086;2022-07-17T11:54:11;23.90;99.90
52415;DHT22;38340;52.964;6.086;2022-07-17T11:56:37;24.00;99.90
52415;DHT22;38340;52.964;6.086;2022-07-17T11:59:03;24.10;99.90
52415;DHT22;38340;52.964;6.086;2022-07-17T12:01:37;24.10;99.90
52415;DHT22;38340;52.964;6.086;2022-07-17T12:04:03;24.00;99.90
52415;DHT22;38340;52.964;6.086;2022-07-17T12:06:29;24.00;99.90
52415;DHT22;38340;52.964;6.086;2022-07-17T12:08:55;24.20;99.90
52415;DHT22;38340;52.964;6.086;2022-07-17T12:11:21;24.40;99.90
52415;DHT22;38340;52.964;6.086;2022-07-17T12:13:47;24.60;99.90
52415;DHT22;38340;52.964;6.086;2022-07-17T12:16:30;24.60;99.90
52415;DHT22;38340;52.964;6.086;2022-07-17T12:19:19;24.60;99.90
52415;DHT22;38340;52.964;6.086;2022-07-17T12:22:00;24.60;99.90
52415;DHT22;38340;52.964;6.086;2022-07-17T12:24:29;24.70;99.90
52415;DHT22;38340;52.964;6.086;2022-07-17T12:26:57;24.70;99.90
52415;DHT22;38340;52.964;6.086;2022-07-17T12:29:24;24.40;99.90
52415;DHT22;38340;52.964;6.086;2022-07-17T12:32:21;24.60;99.90
52415;DHT22;38340;52.964;6.086;2022-07-17T12:34:48;24.80;99.90
52415;DHT22;38340;52.964;6.086;2022-07-17T12:37:19;25.00;99.90
52415;DHT22;38340;52.964;6.086;2022-07-17T12:39:45;24.80;99.90
52415;DHT22;38340;52.964;6.086;2022-07-17T12:42:13;24.70;99.90
52415;DHT22;38340;52.964;6.086;2022-07-17T12:44:39;24.90;99.90
52415;DHT22;38340;52.964;6.086;2022-07-17T12:47:05;24.90;99.90
52415;DHT22;38340;52.964;6.086;2022-07-17T12:49:31;25.00;99.90
52415;DHT22;38340;52.964;6.086;2022-07-17T12:51:56;24.90;99.90
52415;DHT22;38340;52.964;6.086;2022-07-17T12:54:22;24.90;99.90
52415;DHT22;38340;52.964;6.086;2022-07-17T12:56:49;25.00;99.90
52415;DHT22;38340;52.964;6.086;2022-07-17T12:59:15;25.00;99.90
52415;DHT22;38340;52.964;6.086;2022-07-17T13:01:40;24.80;99.90
52415;DHT22;38340;52.964;6.086;2022-07-17T13:04:06;24.50;99.90
52415;DHT22;38340;52.964;6.086;2022-07-17T13:06:32;24.70;99.90
52415;DHT22;38340;52.964;6.086;2022-07-17T13:08:59;24.80;99.90
52415;DHT22;38340;52.964;6.086;2022-07-17T13:11:24;25.10;99.90
52415;DHT22;38340;52.964;6.086;2022-07-17T13:13:50;25.20;99.90
52415;DHT22;38340;52.964;6.086;2022-07-17T13:16:16;25.40;99.90
52415;DHT22;38340;52.964;6.086;2022-07-17T13:18:42;25.50;99.90
52415;DHT22;38340;52.964;6.086;2022-07-17T13:21:09;25.40;99.90
52415;DHT22;38340;52.964;6.086;2022-07-17T13:23:36;25.00;99.90
52415;DHT22;38340;52.964;6.086;2022-07-17T13:26:02;24.80;99.90
52415;DHT22;38340;52.964;6.086;2022-07-17T13:28:29;24.70;99.90
52415;DHT22;38340;52.964;6.086;2022-07-17T13:30:55;24.60;99.90
52415;DHT22;38340;52.964;6.086;2022-07-17T13:33:21;24.70;99.90
52415;DHT22;38340;52.964;6.086;2022-07-17T13:35:47;24.80;99.90
52415;DHT22;38340;52.964;6.086;2022-07-17T13:38:13;25.00;99.90
52415;DHT22;38340;52.964;6.086;2022-07-17T13:40:38;25.10;99.90
52415;DHT22;38340;52.964;6.086;2022-07-17T13:43:04;25.00;99.90
52415;DHT22;38340;52.964;6.086;2022-07-17T13:45:30;25.10;99.90
52415;DHT22;38340;52.964;6.086;2022-07-17T13:47:57;24.90;99.90
52415;DHT22;38340;52.964;6.086;2022-07-17T13:50:23;24.80;99.90
52415;DHT22;38340;52.964;6.086;2022-07-17T13:52:49;24.90;99.90
52415;DHT22;38340;52.964;6.086;2022-07-17T13:55:15;25.10;99.90
52415;DHT22;38340;52.964;6.086;2022-07-17T13:57:42;25.30;99.90
52415;DHT22;38340;52.964;6.086;2022-07-17T14:00:09;25.40;99.90
52415;DHT22;38340;52.964;6.086;2022-07-17T14:02:36;25.70;99.90
52415;DHT22;38340;52.964;6.086;2022-07-17T14:05:07;25.90;99.90
52415;DHT22;38340;52.964;6.086;2022-07-17T14:07:33;26.00;99.90
52415;DHT22;38340;52.964;6.086;2022-07-17T14:09:59;26.10;99.90
52415;DHT22;38340;52.964;6.086;2022-07-17T14:12:25;26.20;99.90
52415;DHT22;38340;52.964;6.086;2022-07-17T14:14:51;26.20;99.90
52415;DHT22;38340;52.964;6.086;2022-07-17T14:17:17;26.20;99.90
52415;DHT22;38340;52.964;6.086;2022-07-17T14:19:43;26.30;99.90
52415;DHT22;38340;52.964;6.086;2022-07-17T14:22:10;26.40;99.90
52415;DHT22;38340;52.964;6.086;2022-07-17T14:24:36;26.50;99.90
52415;DHT22;38340;52.964;6.086;2022-07-17T14:27:02;26.50;99.90
52415;DHT22;38340;52.964;6.086;2022-07-17T14:29:27;26.20;99.90
52415;DHT22;38340;52.964;6.086;2022-07-17T14:31:53;26.00;99.90
52415;DHT22;38340;52.964;6.086;2022-07-17T14:34:19;26.20;99.90
52415;DHT22;38340;52.964;6.086;2022-07-17T14:36:45;26.20;99.90
52415;DHT22;38340;52.964;6.086;2022-07-17T14:39:11;26.10;99.90
52415;DHT22;38340;52.964;6.086;2022-07-17T14:41:38;25.80;99.90
52415;DHT22;38340;52.964;6.086;2022-07-17T14:44:04;25.70;99.90
52415;DHT22;38340;52.964;6.086;2022-07-17T14:46:30;25.70;99.90
52415;DHT22;38340;52.964;6.086;2022-07-17T14:48:55;25.70;99.90
52415;DHT22;38340;52.964;6.086;2022-07-17T14:51:21;25.90;99.90
52415;DHT22;38340;52.964;6.086;2022-07-17T14:53:47;26.00;99.90
52415;DHT22;38340;52.964;6.086;2022-07-17T14:56:13;26.10;99.90
52415;DHT22;38340;52.964;6.086;2022-07-17T14:58:39;26.20;99.90
52415;DHT22;38340;52.964;6.086;2022-07-17T15:01:04;25.90;99.90
52415;DHT22;38340;52.964;6.086;2022-07-17T15:03:30;26.00;99.90
52415;DHT22;38340;52.964;6.086;2022-07-17T15:05:57;25.90;99.90
52415;DHT22;38340;52.964;6.086;2022-07-17T15:08:23;25.80;99.90
52415;DHT22;38340;52.964;6.086;2022-07-17T15:10:49;25.70;99.90
52415;DHT22;38340;52.964;6.086;2022-07-17T15:13:14;25.70;99.90
52415;DHT22;38340;52.964;6.086;2022-07-17T15:15:40;25.60;99.90
52415;DHT22;38340;52.964;6.086;2022-07-17T15:18:06;25.50;99.90
52415;DHT22;38340;52.964;6.086;2022-07-17T15:20:31;25.70;99.90
52415;DHT22;38340;52.964;6.086;2022-07-17T15:22:57;25.80;99.90
52415;DHT22;38340;52.964;6.086;2022-07-17T15:25:23;25.90;99.90
52415;DHT22;38340;52.964;6.086;2022-07-17T15:27:48;25.80;99.90
52415;DHT22;38340;52.964;6.086;2022-07-17T15:30:14;25.80;99.90
52415;DHT22;38340;52.964;6.086;2022-07-17T15:32:40;25.90;99.90
52415;DHT22;38340;52.964;6.086;2022-07-17T15:35:06;26.10;99.90
52415;DHT22;38340;52.964;6.086;2022-07-17T15:37:32;26.30;99.90
52415;DHT22;38340;52.964;6.086;2022-07-17T15:39:58;26.30;99.90
52415;DHT22;38340;52.964;6.086;2022-07-17T15:42:25;26.50;99.90
52415;DHT22;38340;52.964;6.086;2022-07-17T15:44:51;26.70;99.90
52415;DHT22;38340;52.964;6.086;2022-07-17T15:47:17;26.80;99.90
52415;DHT22;38340;52.964;6.086;2022-07-17T15:49:43;26.80;99.90
52415;DHT22;38340;52.964;6.086;2022-07-17T15:52:08;26.90;99.90
52415;DHT22;38340;52.964;6.086;2022-07-17T15:54:34;26.60;99.90